Nearby METAR Reports

 

KBGR - Bangor, Maine, USA
Distance from station: E 5mi, 8km
Updated: Sat, 20-Jul-2019 4:53am EDT
Few Clouds
Few Clouds
 Wind from SW
Wind: SW 3 mph , 6 km/h
Temperature: 66°F , 19°C
Dew Point: 64°F , 18°C
Humidity: 94%
Barometer: 29.68 inHg , 1005.1 hPa
Clouds: Few Clouds
Visibility: 10 miles , 16 km
Cloud details: Few Clouds 8000 ft
Few Clouds 20000 ft
2019/07/20 08:53 KBGR 200853Z 23003KT 10SM FEW080 FEW200 19/18 A2968 RMK AO2 SLP047 T01890178 56004
KBHB - Bar Harbor, Maine, USA
Distance from station: SE 37mi, 59km
Updated: Sat, 20-Jul-2019 4:56am EDT
Clear
Clear
 Wind from SW
Wind: SW 5 mph , 7 km/h
Temperature: 63°F , 17°C
Dew Point: 63°F , 17°C
Humidity: 100%
Barometer: 29.69 inHg , 1005.4 hPa
Clouds: Clear
Visibility: 9 miles , 14 km
2019/07/20 08:56 KBHB 200856Z AUTO 22004KT 9SM CLR 17/17 A2969 RMK AO2 SLP054 T01720172 56004
 
KWVL - Waterville, Maine, USA
Distance from station: WSW 42mi, 68km
Updated: Sat, 20-Jul-2019 4:56am EDT
Clear
Clear
 Wind from W
Wind: W 7 mph , 11 km/h
Temperature: 73°F , 23°C
Dew Point: 70°F , 21°C
Humidity: 89%
Barometer: 29.69 inHg , 1005.4 hPa
Clouds: Clear
Visibility: 10 miles , 16 km
2019/07/20 08:56 KWVL 200856Z AUTO 26006KT 10SM CLR 23/21 A2969 RMK AO2 SLP074 T02280206 53000
KRKD - Rockland/Knox, Maine, USA
Distance from station: S 52mi, 84km
Updated: Sat, 20-Jul-2019 4:56am EDT
Clear
Clear
 Wind from W
Wind: W 3 mph , 6 km/h
Temperature: 63°F , 17°C
Dew Point: 63°F , 17°C
Humidity: 100%
Barometer: 29.70 inHg , 1005.8 hPa
Clouds: Clear
Visibility: 10 miles , 16 km
2019/07/20 08:56 KRKD 200856Z AUTO 26003KT 10SM CLR 17/17 A2970 RMK AO2 SLP059 T01720167 53001
 
KAUG - Augusta, Maine, USA
Distance from station: SW 55mi, 89km
Updated: Sat, 20-Jul-2019 4:53am EDT
Clear
Clear
 Wind from calm
Wind: Calm
Temperature: 75°F , 24°C
Dew Point: 70°F , 21°C
Humidity: 83%
Barometer: 29.72 inHg , 1006.4 hPa
Clouds: Clear
Visibility: 10 miles , 16 km
2019/07/20 08:53 KAUG 200853Z AUTO 00000KT 10SM CLR 24/21 A2972 RMK AO2 SLP061 T02390206 53001 $
KGNR - Greenville, Maine, USA
Distance from station: NW 55mi, 89km
Updated: Sat, 20-Jul-2019 4:56am EDT

 Wind from WNW
Wind: WNW 8 mph , 13 km/h, Gust: 18 mph , 30 km/h
Temperature: 75°F , 24°C
Dew Point: 66°F , 19°C
Humidity: 74%
Barometer: 29.71 inHg , 1006.1 hPa
2019/07/20 08:56 KGNR 200856Z AUTO 30007G16KT 24/19 A2971 RMK AO1 SLP053 T02390189 53003
 
KMLT - Millinocket, Maine, USA
Distance from station: N 59mi, 95km
Updated: Sat, 20-Jul-2019 4:53am EDT
Overcast
Overcast
 Wind from calm
Wind: Calm
Temperature: 68°F , 20°C
Dew Point: 66°F , 19°C
Humidity: 94%
Barometer: 29.66 inHg , 1004.4 hPa
Clouds: Overcast
Visibility: 10 miles , 16 km
Cloud details: Few Clouds 8000 ft
Overcast 9500 ft
2019/07/20 08:53 KMLT 200853Z AUTO 00000KT 10SM FEW080 OVC095 20/19 A2966 RMK AO2 SLP046 T02000189 56004
KIWI - Wiscasset, Maine, USA
Distance from station: SW 70mi, 113km
Updated: Sat, 20-Jul-2019 4:53am EDT
Clear
Clear
 Wind from calm
Wind: Calm
Temperature: 66°F , 19°C
Dew Point: 64°F , 18°C
Humidity: 94%
Barometer: 29.72 inHg , 1006.4 hPa
Clouds: Clear
Visibility: 10 miles , 16 km
2019/07/20 08:53 KIWI 200853Z AUTO 00000KT 10SM CLR 19/18 A2972 RMK AO2 SLP064 T01890178 53006
 
CWSS - St. Stephen (mar, New Brunswick, Canada
Distance from station: ENE 86mi, 138km
Updated: Sat, 20-Jul-2019 5:00am EDT

 Wind from calm
Wind: Calm
Temperature: 61°F , 16°C
Dew Point: 61°F , 16°C
Humidity: 100%
2019/07/20 09:00 CWSS 200900Z AUTO 00000KT 16/16 RMK AO1 SLP039 T01590155 55003
KLEW - Auburn/Lewiston, Maine, USA
Distance from station: SW 86mi, 138km
Updated: Sat, 20-Jul-2019 4:56am EDT
Clear
Clear
 Wind from calm
Wind: Calm
Temperature: 68°F , 20°C
Dew Point: 66°F , 19°C
Humidity: 94%
Barometer: 29.73 inHg , 1006.8 hPa
Clouds: Clear
Visibility: 10 miles , 16 km
2019/07/20 08:56 KLEW 200856Z AUTO 00000KT 10SM CLR 20/19 A2973 RMK AO2 SLP079 T02000194 53006
 
KHUL - Houlton, Maine, USA
Distance from station: NNE 105mi, 169km
Updated: Sat, 20-Jul-2019 4:53am EDT
Overcast
Overcast
 Wind from SSW
Wind: SSW 6 mph , 9 km/h
Temperature: 70°F , 21°C
Dew Point: 66°F , 19°C
Humidity: 88%
Barometer: 29.61 inHg , 1002.7 hPa
Clouds: Overcast
Visibility: 10 miles , 16 km
Cloud details: Overcast 10000 ft
2019/07/20 08:53 KHUL 200853Z AUTO 20005KT 10SM OVC100 21/19 A2961 RMK AO2 SLP023 T02110194 56005
KPWM - Portland, Maine, USA
Distance from station: SW 105mi, 170km
Updated: Sat, 20-Jul-2019 4:51am EDT
Few Clouds
Few Clouds
 Wind from calm
Wind: Calm
Temperature: 75°F , 24°C
Dew Point: 70°F , 21°C
Humidity: 83%
Barometer: 29.72 inHg , 1006.4 hPa
Clouds: Few Clouds
Visibility: 10 miles , 16 km
Cloud details: Few Clouds 25000 ft
2019/07/20 08:51 KPWM 200851Z 00000KT 10SM FEW250 24/21 A2972 RMK AO2 SLP064 T02440211 50007
 
KBML - Berlin, New Hampshire, USA
Distance from station: W 113mi, 181km
Updated: Sat, 20-Jul-2019 5:09am EDT
Mist, Clear
Mist, Clear
 Wind from calm
Wind: Calm
Temperature: 64°F , 18°C
Dew Point: 63°F , 17°C
Humidity: 94%
Barometer: 29.79 inHg , 1008.8 hPa
Summary: Mist
Clouds: Clear
Visibility: 3 miles , 5 km
2019/07/20 09:09 KBML 200909Z AUTO 00000KT 3SM BR CLR 18/17 A2979 RMK AO2 T01830172
KIZG - Fryeburg, Maine, USA
Distance from station: WSW 116mi, 186km
Updated: Sat, 20-Jul-2019 4:54am EDT
Clear
Clear
 Wind from calm
Wind: Calm
Temperature: 70°F , 21°C
Dew Point: 66°F , 19°C
Humidity: 88%
Barometer: 29.75 inHg , 1007.5 hPa
Clouds: Clear
Visibility: 10 miles , 16 km
2019/07/20 08:54 KIZG 200854Z AUTO 00000KT 10SM CLR 21/19 A2975 RMK AO2 SLP073 T02060194 53004
 
CWPE - Point Lepreau, New Brunswick, Canada
Distance from station: E 121mi, 195km
Updated: Sat, 20-Jul-2019 5:00am EDT

 Wind from WNW
Wind: WNW 5 mph , 7 km/h
Temperature: 54°F , 12°C
Dew Point: 54°F , 12°C
Humidity: 100%
2019/07/20 09:00 CWPE 200900Z AUTO 30004KT 12/12 RMK AO1 SLP037 T01230122 56006
KMWN - Mount Washington, New Hampshire, USA
Distance from station: WSW 123mi, 198km
Updated: Sat, 20-Jul-2019 4:53am EDT
Fog, Overcast
Fog, Overcast
 Wind from NW
Wind: NW 46 mph , 74 km/h, Gust: 60 mph , 96 km/h
Temperature: 59°F , 15°C
Dew Point: 59°F , 15°C
Humidity: 100%
Summary: Fog
Clouds: Overcast
Visibility: 0 miles , 0 km
Cloud details: Overcast 0 ft
2019/07/20 08:53 KMWN 200853Z 31040G52KT 0SM FG VV000 15/15 RMK
 
KPQI - Presque Isle, Maine, USA
Distance from station: ESE 136mi, 219km
Updated: Sat, 20-Jul-2019 4:56am EDT
Partly cloudy
Partly cloudy
 Wind from calm
Wind: Calm
Temperature: 68°F , 20°C
Dew Point: 66°F , 19°C
Humidity: 94%
Barometer: 29.61 inHg , 1002.7 hPa
Clouds: Partly cloudy
Visibility: 10 miles , 16 km
Cloud details: Partly cloudy 10000 ft
2019/07/20 08:56 KPQI 200856Z AUTO 00000KT 10SM SCT100 20/19 A2961 RMK AO2 SLP048 T02000194 55003
KCAR - Caribou, Maine, USA
Distance from station: NNE 148mi, 238km
Updated: Sat, 20-Jul-2019 4:54am EDT
Partly cloudy
Partly cloudy
 Wind from calm
Wind: Calm
Temperature: 68°F , 20°C
Dew Point: 64°F , 18°C
Humidity: 88%
Barometer: 29.60 inHg , 1002.4 hPa
Clouds: Partly cloudy
Visibility: 10 miles , 16 km
Cloud details: Partly cloudy 9500 ft
2019/07/20 08:54 KCAR 200854Z AUTO 00000KT 10SM SCT095 20/18 A2960 RMK AO2 SLP023 T02000183 55001